sensor_id;sensor_type;location;lat;lon;timestamp;P1;durP1;ratioP1;P2;durP2;ratioP2
4053;SDS011;2042;47.956;9.222;2023-03-04T00:02:24;1999.90;;;999.90;;
4053;SDS011;2042;47.956;9.222;2023-03-04T00:04:51;1999.90;;;999.90;;
4053;SDS011;2042;47.956;9.222;2023-03-04T00:07:16;1999.90;;;999.90;;
4053;SDS011;2042;47.956;9.222;2023-03-04T00:09:43;1999.90;;;999.90;;
4053;SDS011;2042;47.956;9.222;2023-03-04T00:12:10;1999.90;;;999.90;;
4053;SDS011;2042;47.956;9.222;2023-03-04T00:14:35;1999.90;;;999.90;;
4053;SDS011;2042;47.956;9.222;2023-03-04T00:17:01;1999.90;;;999.90;;
4053;SDS011;2042;47.956;9.222;2023-03-04T00:19:28;1999.90;;;999.90;;
4053;SDS011;2042;47.956;9.222;2023-03-04T00:21:54;1999.90;;;999.90;;
4053;SDS011;2042;47.956;9.222;2023-03-04T00:24:20;1999.90;;;999.90;;
4053;SDS011;2042;47.956;9.222;2023-03-04T00:26:46;1999.90;;;999.90;;
4053;SDS011;2042;47.956;9.222;2023-03-04T00:29:12;1999.90;;;999.90;;
4053;SDS011;2042;47.956;9.222;2023-03-04T00:31:37;1999.90;;;999.90;;
4053;SDS011;2042;47.956;9.222;2023-03-04T00:34:03;1999.90;;;999.90;;
4053;SDS011;2042;47.956;9.222;2023-03-04T00:36:29;1999.90;;;999.90;;
4053;SDS011;2042;47.956;9.222;2023-03-04T00:38:54;1999.90;;;999.90;;
4053;SDS011;2042;47.956;9.222;2023-03-04T00:41:20;1999.90;;;999.90;;
4053;SDS011;2042;47.956;9.222;2023-03-04T00:43:46;1999.90;;;999.90;;
4053;SDS011;2042;47.956;9.222;2023-03-04T00:46:11;1999.90;;;999.90;;
4053;SDS011;2042;47.956;9.222;2023-03-04T00:48:37;1999.90;;;999.90;;
4053;SDS011;2042;47.956;9.222;2023-03-04T00:51:03;1999.90;;;999.90;;
4053;SDS011;2042;47.956;9.222;2023-03-04T00:53:29;1999.90;;;999.90;;
4053;SDS011;2042;47.956;9.222;2023-03-04T00:55:55;1999.90;;;999.90;;
4053;SDS011;2042;47.956;9.222;2023-03-04T00:58:20;1999.90;;;999.90;;
4053;SDS011;2042;47.956;9.222;2023-03-04T01:00:46;1999.90;;;999.90;;
4053;SDS011;2042;47.956;9.222;2023-03-04T01:03:12;954.73;;;891.47;;
4053;SDS011;2042;47.956;9.222;2023-03-04T01:05:37;909.47;;;851.23;;
4053;SDS011;2042;47.956;9.222;2023-03-04T01:08:03;858.70;;;805.20;;
4053;SDS011;2042;47.956;9.222;2023-03-04T01:10:29;820.33;;;769.87;;
4053;SDS011;2042;47.956;9.222;2023-03-04T01:12:55;810.80;;;761.73;;
4053;SDS011;2042;47.956;9.222;2023-03-04T01:15:20;814.90;;;766.17;;
4053;SDS011;2042;47.956;9.222;2023-03-04T01:17:46;769.63;;;722.97;;
4053;SDS011;2042;47.956;9.222;2023-03-04T01:20:12;846.80;;;795.07;;
4053;SDS011;2042;47.956;9.222;2023-03-04T01:22:38;849.40;;;798.27;;
4053;SDS011;2042;47.956;9.222;2023-03-04T01:25:06;805.70;;;757.57;;
4053;SDS011;2042;47.956;9.222;2023-03-04T01:27:33;791.27;;;744.30;;
4053;SDS011;2042;47.956;9.222;2023-03-04T01:29:58;741.43;;;696.57;;
4053;SDS011;2042;47.956;9.222;2023-03-04T01:32:24;1602.20;;;919.10;;
4053;SDS011;2042;47.956;9.222;2023-03-04T01:34:50;616.70;;;578.70;;
4053;SDS011;2042;47.956;9.222;2023-03-04T01:37:16;1555.20;;;875.10;;
4053;SDS011;2042;47.956;9.222;2023-03-04T01:39:44;600.57;;;563.30;;
4053;SDS011;2042;47.956;9.222;2023-03-04T01:42:17;203.03;;;181.80;;
4053;SDS011;2042;47.956;9.222;2023-03-04T01:44:45;198.83;;;179.77;;
4053;SDS011;2042;47.956;9.222;2023-03-04T01:47:13;246.23;;;224.63;;
4053;SDS011;2042;47.956;9.222;2023-03-04T01:49:39;284.30;;;260.80;;
4053;SDS011;2042;47.956;9.222;2023-03-04T01:52:08;179.33;;;153.23;;
4053;SDS011;2042;47.956;9.222;2023-03-04T01:54:35;178.53;;;146.00;;
4053;SDS011;2042;47.956;9.222;2023-03-04T01:57:01;176.67;;;140.43;;
4053;SDS011;2042;47.956;9.222;2023-03-04T01:59:29;182.37;;;143.80;;
4053;SDS011;2042;47.956;9.222;2023-03-04T02:01:56;229.07;;;207.17;;
4053;SDS011;2042;47.956;9.222;2023-03-04T02:04:24;232.53;;;209.97;;
4053;SDS011;2042;47.956;9.222;2023-03-04T02:06:51;270.13;;;247.50;;
4053;SDS011;2042;47.956;9.222;2023-03-04T02:09:17;287.90;;;263.30;;
4053;SDS011;2042;47.956;9.222;2023-03-04T02:11:45;290.23;;;265.90;;
4053;SDS011;2042;47.956;9.222;2023-03-04T02:14:13;452.97;;;419.77;;
4053;SDS011;2042;47.956;9.222;2023-03-04T02:16:42;670.87;;;627.27;;
4053;SDS011;2042;47.956;9.222;2023-03-04T02:21:57;502.30;;;468.37;;
4053;SDS011;2042;47.956;9.222;2023-03-04T02:26:52;454.70;;;421.07;;
4053;SDS011;2042;47.956;9.222;2023-03-04T02:29:18;403.03;;;374.63;;
4053;SDS011;2042;47.956;9.222;2023-03-04T02:31:46;558.97;;;521.43;;
4053;SDS011;2042;47.956;9.222;2023-03-04T02:34:13;562.17;;;525.40;;
4053;SDS011;2042;47.956;9.222;2023-03-04T02:36:40;754.30;;;705.27;;
4053;SDS011;2042;47.956;9.222;2023-03-04T02:39:10;735.23;;;687.40;;
4053;SDS011;2042;47.956;9.222;2023-03-04T02:41:37;837.53;;;783.80;;
4053;SDS011;2042;47.956;9.222;2023-03-04T02:44:08;786.73;;;737.30;;
4053;SDS011;2042;47.956;9.222;2023-03-04T02:46:40;847.47;;;792.60;;
4053;SDS011;2042;47.956;9.222;2023-03-04T02:49:06;655.87;;;613.53;;
4053;SDS011;2042;47.956;9.222;2023-03-04T02:51:32;821.57;;;768.83;;
4053;SDS011;2042;47.956;9.222;2023-03-04T02:53:58;469.40;;;437.17;;
4053;SDS011;2042;47.956;9.222;2023-03-04T02:56:24;538.77;;;504.87;;
4053;SDS011;2042;47.956;9.222;2023-03-04T02:58:50;660.07;;;616.73;;
4053;SDS011;2042;47.956;9.222;2023-03-04T03:01:16;723.07;;;677.23;;
4053;SDS011;2042;47.956;9.222;2023-03-04T03:03:43;733.73;;;687.63;;
4053;SDS011;2042;47.956;9.222;2023-03-04T03:06:09;711.20;;;664.57;;
4053;SDS011;2042;47.956;9.222;2023-03-04T03:08:35;677.37;;;632.37;;
4053;SDS011;2042;47.956;9.222;2023-03-04T03:11:01;699.73;;;654.20;;
4053;SDS011;2042;47.956;9.222;2023-03-04T03:13:27;752.10;;;702.37;;
4053;SDS011;2042;47.956;9.222;2023-03-04T03:15:53;794.13;;;742.63;;
4053;SDS011;2042;47.956;9.222;2023-03-04T03:18:19;768.37;;;718.13;;
4053;SDS011;2042;47.956;9.222;2023-03-04T03:20:45;632.73;;;591.40;;
4053;SDS011;2042;47.956;9.222;2023-03-04T03:23:11;751.37;;;702.40;;
4053;SDS011;2042;47.956;9.222;2023-03-04T03:25:38;689.70;;;644.27;;
4053;SDS011;2042;47.956;9.222;2023-03-04T03:28:04;651.90;;;609.30;;
4053;SDS011;2042;47.956;9.222;2023-03-04T03:30:30;770.70;;;720.27;;
4053;SDS011;2042;47.956;9.222;2023-03-04T03:32:56;836.80;;;781.13;;
4053;SDS011;2042;47.956;9.222;2023-03-04T03:35:22;745.77;;;695.93;;
4053;SDS011;2042;47.956;9.222;2023-03-04T03:37:48;674.43;;;631.90;;
4053;SDS011;2042;47.956;9.222;2023-03-04T03:40:14;750.23;;;703.10;;
4053;SDS011;2042;47.956;9.222;2023-03-04T03:42:40;890.47;;;833.33;;
4053;SDS011;2042;47.956;9.222;2023-03-04T03:45:06;903.00;;;843.73;;
4053;SDS011;2042;47.956;9.222;2023-03-04T03:47:32;803.43;;;751.57;;
4053;SDS011;2042;47.956;9.222;2023-03-04T03:49:58;953.53;;;888.60;;
4053;SDS011;2042;47.956;9.222;2023-03-04T03:52:24;798.87;;;743.63;;
4053;SDS011;2042;47.956;9.222;2023-03-04T03:54:50;863.97;;;806.70;;
4053;SDS011;2042;47.956;9.222;2023-03-04T03:57:17;899.37;;;834.67;;
4053;SDS011;2042;47.956;9.222;2023-03-04T03:59:42;781.63;;;729.23;;
4053;SDS011;2042;47.956;9.222;2023-03-04T04:02:09;918.27;;;857.27;;
4053;SDS011;2042;47.956;9.222;2023-03-04T04:04:35;885.50;;;828.57;;
4053;SDS011;2042;47.956;9.222;2023-03-04T04:07:01;785.73;;;736.40;;
4053;SDS011;2042;47.956;9.222;2023-03-04T04:09:27;867.90;;;814.03;;
4053;SDS011;2042;47.956;9.222;2023-03-04T04:11:53;877.03;;;821.90;;
4053;SDS011;2042;47.956;9.222;2023-03-04T04:14:19;916.80;;;857.60;;
4053;SDS011;2042;47.956;9.222;2023-03-04T04:16:45;913.07;;;853.00;;
4053;SDS011;2042;47.956;9.222;2023-03-04T04:19:16;872.90;;;817.47;;
4053;SDS011;2042;47.956;9.222;2023-03-04T04:21:42;794.57;;;744.80;;
4053;SDS011;2042;47.956;9.222;2023-03-04T04:24:08;897.23;;;839.67;;
4053;SDS011;2042;47.956;9.222;2023-03-04T04:26:34;822.17;;;770.20;;
4053;SDS011;2042;47.956;9.222;2023-03-04T04:29:00;1999.90;;;999.90;;
4053;SDS011;2042;47.956;9.222;2023-03-04T04:31:26;431.33;;;399.43;;
4053;SDS011;2042;47.956;9.222;2023-03-04T04:33:54;844.17;;;779.30;;
4053;SDS011;2042;47.956;9.222;2023-03-04T04:36:22;860.30;;;803.43;;
4053;SDS011;2042;47.956;9.222;2023-03-04T04:38:49;755.60;;;702.27;;
4053;SDS011;2042;47.956;9.222;2023-03-04T04:41:25;925.67;;;864.00;;
4053;SDS011;2042;47.956;9.222;2023-03-04T04:43:52;990.20;;;921.60;;
4053;SDS011;2042;47.956;9.222;2023-03-04T04:46:18;779.33;;;727.77;;
4053;SDS011;2042;47.956;9.222;2023-03-04T04:48:44;938.63;;;874.00;;
4053;SDS011;2042;47.956;9.222;2023-03-04T04:51:10;968.60;;;902.57;;
4053;SDS011;2042;47.956;9.222;2023-03-04T04:53:36;656.50;;;613.67;;
4053;SDS011;2042;47.956;9.222;2023-03-04T04:56:15;912.47;;;852.47;;
4053;SDS011;2042;47.956;9.222;2023-03-04T04:58:44;819.40;;;769.00;;
4053;SDS011;2042;47.956;9.222;2023-03-04T05:01:10;782.50;;;734.70;;
4053;SDS011;2042;47.956;9.222;2023-03-04T05:03:36;725.53;;;683.00;;
4053;SDS011;2042;47.956;9.222;2023-03-04T05:06:03;796.57;;;748.43;;
4053;SDS011;2042;47.956;9.222;2023-03-04T05:08:29;736.17;;;689.60;;
4053;SDS011;2042;47.956;9.222;2023-03-04T05:10:55;694.73;;;652.57;;
4053;SDS011;2042;47.956;9.222;2023-03-04T05:13:21;707.57;;;665.63;;
4053;SDS011;2042;47.956;9.222;2023-03-04T05:15:49;746.73;;;702.10;;
4053;SDS011;2042;47.956;9.222;2023-03-04T05:18:15;778.27;;;731.70;;
4053;SDS011;2042;47.956;9.222;2023-03-04T05:20:42;557.80;;;525.70;;
4053;SDS011;2042;47.956;9.222;2023-03-04T05:23:10;676.00;;;636.70;;
4053;SDS011;2042;47.956;9.222;2023-03-04T05:25:37;725.70;;;683.77;;
4053;SDS011;2042;47.956;9.222;2023-03-04T05:28:04;714.97;;;673.10;;
4053;SDS011;2042;47.956;9.222;2023-03-04T05:30:36;751.93;;;707.53;;
4053;SDS011;2042;47.956;9.222;2023-03-04T05:33:02;733.70;;;690.50;;
4053;SDS011;2042;47.956;9.222;2023-03-04T05:35:33;718.80;;;676.57;;
4053;SDS011;2042;47.956;9.222;2023-03-04T05:38:01;700.23;;;659.07;;
4053;SDS011;2042;47.956;9.222;2023-03-04T05:40:28;706.30;;;663.73;;
4053;SDS011;2042;47.956;9.222;2023-03-04T05:42:55;632.07;;;593.77;;
4053;SDS011;2042;47.956;9.222;2023-03-04T05:45:23;489.47;;;458.30;;
4053;SDS011;2042;47.956;9.222;2023-03-04T05:47:50;631.47;;;594.27;;
4053;SDS011;2042;47.956;9.222;2023-03-04T05:50:17;602.17;;;567.30;;
4053;SDS011;2042;47.956;9.222;2023-03-04T05:52:43;591.13;;;556.37;;
4053;SDS011;2042;47.956;9.222;2023-03-04T05:55:09;716.70;;;674.33;;
4053;SDS011;2042;47.956;9.222;2023-03-04T05:57:35;612.83;;;576.47;;
4053;SDS011;2042;47.956;9.222;2023-03-04T06:00:02;677.07;;;636.33;;
4053;SDS011;2042;47.956;9.222;2023-03-04T06:02:29;508.57;;;475.53;;
4053;SDS011;2042;47.956;9.222;2023-03-04T06:04:55;581.00;;;546.50;;
4053;SDS011;2042;47.956;9.222;2023-03-04T06:07:21;371.20;;;347.07;;
4053;SDS011;2042;47.956;9.222;2023-03-04T06:09:47;596.60;;;558.97;;
4053;SDS011;2042;47.956;9.222;2023-03-04T06:12:13;509.93;;;478.07;;
4053;SDS011;2042;47.956;9.222;2023-03-04T06:14:39;617.90;;;580.90;;
4053;SDS011;2042;47.956;9.222;2023-03-04T06:17:05;556.93;;;522.93;;
4053;SDS011;2042;47.956;9.222;2023-03-04T06:19:31;605.33;;;568.27;;
4053;SDS011;2042;47.956;9.222;2023-03-04T06:21:58;623.90;;;585.87;;
4053;SDS011;2042;47.956;9.222;2023-03-04T06:24:24;620.67;;;583.10;;
4053;SDS011;2042;47.956;9.222;2023-03-04T06:26:52;637.00;;;598.27;;
4053;SDS011;2042;47.956;9.222;2023-03-04T06:29:18;643.90;;;605.43;;
4053;SDS011;2042;47.956;9.222;2023-03-04T06:31:44;657.20;;;616.87;;
4053;SDS011;2042;47.956;9.222;2023-03-04T06:34:10;689.33;;;648.40;;
4053;SDS011;2042;47.956;9.222;2023-03-04T06:36:36;756.27;;;708.03;;
4053;SDS011;2042;47.956;9.222;2023-03-04T06:39:03;787.00;;;738.00;;
4053;SDS011;2042;47.956;9.222;2023-03-04T06:41:30;745.40;;;697.63;;
4053;SDS011;2042;47.956;9.222;2023-03-04T06:43:56;857.90;;;800.73;;
4053;SDS011;2042;47.956;9.222;2023-03-04T06:46:22;829.00;;;771.10;;
4053;SDS011;2042;47.956;9.222;2023-03-04T06:48:48;739.67;;;684.07;;
4053;SDS011;2042;47.956;9.222;2023-03-04T06:51:15;518.00;;;479.50;;
4053;SDS011;2042;47.956;9.222;2023-03-04T06:53:41;559.60;;;523.90;;
4053;SDS011;2042;47.956;9.222;2023-03-04T06:56:08;759.37;;;708.10;;
4053;SDS011;2042;47.956;9.222;2023-03-04T06:58:35;1605.90;;;921.10;;
4053;SDS011;2042;47.956;9.222;2023-03-04T07:03:36;1999.90;;;999.90;;
4053;SDS011;2042;47.956;9.222;2023-03-04T07:06:02;1999.90;;;999.90;;
4053;SDS011;2042;47.956;9.222;2023-03-04T07:08:28;1999.90;;;999.90;;
4053;SDS011;2042;47.956;9.222;2023-03-04T07:10:54;1999.90;;;999.90;;
4053;SDS011;2042;47.956;9.222;2023-03-04T07:13:21;1999.90;;;999.90;;
4053;SDS011;2042;47.956;9.222;2023-03-04T07:15:46;1999.90;;;999.90;;
4053;SDS011;2042;47.956;9.222;2023-03-04T07:18:13;1999.90;;;999.90;;
4053;SDS011;2042;47.956;9.222;2023-03-04T07:20:39;1999.90;;;999.90;;
4053;SDS011;2042;47.956;9.222;2023-03-04T07:23:05;1999.90;;;999.90;;
4053;SDS011;2042;47.956;9.222;2023-03-04T07:25:30;1999.90;;;999.90;;
4053;SDS011;2042;47.956;9.222;2023-03-04T07:27:56;1999.90;;;999.90;;
4053;SDS011;2042;47.956;9.222;2023-03-04T07:30:22;1999.90;;;999.90;;
4053;SDS011;2042;47.956;9.222;2023-03-04T07:32:48;1999.90;;;999.90;;
4053;SDS011;2042;47.956;9.222;2023-03-04T07:35:13;1999.90;;;999.90;;
4053;SDS011;2042;47.956;9.222;2023-03-04T07:37:40;1999.90;;;999.90;;
4053;SDS011;2042;47.956;9.222;2023-03-04T07:40:07;1999.90;;;999.90;;
4053;SDS011;2042;47.956;9.222;2023-03-04T07:42:34;1999.90;;;999.90;;
4053;SDS011;2042;47.956;9.222;2023-03-04T07:45:02;1999.90;;;999.90;;
4053;SDS011;2042;47.956;9.222;2023-03-04T07:47:32;1999.90;;;999.90;;
4053;SDS011;2042;47.956;9.222;2023-03-04T07:49:58;1999.90;;;999.90;;
4053;SDS011;2042;47.956;9.222;2023-03-04T07:52:24;1999.90;;;999.90;;
4053;SDS011;2042;47.956;9.222;2023-03-04T07:54:51;1999.90;;;999.90;;
4053;SDS011;2042;47.956;9.222;2023-03-04T07:57:17;1999.90;;;999.90;;
4053;SDS011;2042;47.956;9.222;2023-03-04T07:59:42;1999.90;;;999.90;;
4053;SDS011;2042;47.956;9.222;2023-03-04T08:02:09;1999.90;;;999.90;;
4053;SDS011;2042;47.956;9.222;2023-03-04T08:04:34;1999.90;;;999.90;;
4053;SDS011;2042;47.956;9.222;2023-03-04T08:07:04;1999.90;;;999.90;;
4053;SDS011;2042;47.956;9.222;2023-03-04T08:09:32;1999.90;;;999.90;;
4053;SDS011;2042;47.956;9.222;2023-03-04T08:12:02;1999.90;;;999.90;;
4053;SDS011;2042;47.956;9.222;2023-03-04T08:14:28;1999.90;;;999.90;;
4053;SDS011;2042;47.956;9.222;2023-03-04T08:16:56;1999.90;;;999.90;;
4053;SDS011;2042;47.956;9.222;2023-03-04T08:19:22;1999.90;;;999.90;;
4053;SDS011;2042;47.956;9.222;2023-03-04T08:21:48;1999.90;;;999.90;;
4053;SDS011;2042;47.956;9.222;2023-03-04T08:24:14;1999.90;;;999.90;;
4053;SDS011;2042;47.956;9.222;2023-03-04T08:26:42;1999.90;;;999.90;;
4053;SDS011;2042;47.956;9.222;2023-03-04T08:29:12;1999.90;;;999.90;;
4053;SDS011;2042;47.956;9.222;2023-03-04T08:31:41;1999.90;;;999.90;;
4053;SDS011;2042;47.956;9.222;2023-03-04T08:34:10;1999.90;;;999.90;;
4053;SDS011;2042;47.956;9.222;2023-03-04T08:36:37;1999.90;;;999.90;;
4053;SDS011;2042;47.956;9.222;2023-03-04T08:39:03;1999.90;;;999.90;;
4053;SDS011;2042;47.956;9.222;2023-03-04T08:41:31;1999.90;;;999.90;;
4053;SDS011;2042;47.956;9.222;2023-03-04T08:43:58;1999.90;;;999.90;;
4053;SDS011;2042;47.956;9.222;2023-03-04T08:46:24;1999.90;;;999.90;;
4053;SDS011;2042;47.956;9.222;2023-03-04T08:48:50;1999.90;;;999.90;;
4053;SDS011;2042;47.956;9.222;2023-03-04T08:51:16;1999.90;;;999.90;;
4053;SDS011;2042;47.956;9.222;2023-03-04T08:53:42;1999.90;;;999.90;;
4053;SDS011;2042;47.956;9.222;2023-03-04T08:56:10;1999.90;;;999.90;;
4053;SDS011;2042;47.956;9.222;2023-03-04T08:58:37;1999.90;;;999.90;;
4053;SDS011;2042;47.956;9.222;2023-03-04T09:01:03;1999.90;;;999.90;;
4053;SDS011;2042;47.956;9.222;2023-03-04T09:03:30;1999.90;;;999.90;;
4053;SDS011;2042;47.956;9.222;2023-03-04T09:05:57;1999.90;;;999.90;;
4053;SDS011;2042;47.956;9.222;2023-03-04T09:08:23;1999.90;;;999.90;;
4053;SDS011;2042;47.956;9.222;2023-03-04T09:10:51;1999.90;;;999.90;;
4053;SDS011;2042;47.956;9.222;2023-03-04T09:13:17;1999.90;;;999.90;;
4053;SDS011;2042;47.956;9.222;2023-03-04T09:15:44;1999.90;;;999.90;;
4053;SDS011;2042;47.956;9.222;2023-03-04T09:18:12;1999.90;;;999.90;;
4053;SDS011;2042;47.956;9.222;2023-03-04T09:20:38;1999.90;;;999.90;;
4053;SDS011;2042;47.956;9.222;2023-03-04T09:23:04;1999.90;;;999.90;;
4053;SDS011;2042;47.956;9.222;2023-03-04T09:25:31;1999.90;;;999.90;;
4053;SDS011;2042;47.956;9.222;2023-03-04T09:27:57;1999.90;;;999.90;;
4053;SDS011;2042;47.956;9.222;2023-03-04T09:30:23;1999.90;;;999.90;;
4053;SDS011;2042;47.956;9.222;2023-03-04T09:32:49;1999.90;;;999.90;;
4053;SDS011;2042;47.956;9.222;2023-03-04T09:35:15;1999.90;;;999.90;;
4053;SDS011;2042;47.956;9.222;2023-03-04T09:37:41;1999.90;;;999.90;;
4053;SDS011;2042;47.956;9.222;2023-03-04T09:40:10;1999.90;;;999.90;;
4053;SDS011;2042;47.956;9.222;2023-03-04T09:42:44;1999.90;;;999.90;;
4053;SDS011;2042;47.956;9.222;2023-03-04T09:45:13;1999.90;;;999.90;;
4053;SDS011;2042;47.956;9.222;2023-03-04T09:47:41;1999.90;;;999.90;;
4053;SDS011;2042;47.956;9.222;2023-03-04T09:50:09;1999.90;;;999.90;;
4053;SDS011;2042;47.956;9.222;2023-03-04T09:52:41;1999.90;;;999.90;;
4053;SDS011;2042;47.956;9.222;2023-03-04T09:55:43;1999.90;;;999.90;;
4053;SDS011;2042;47.956;9.222;2023-03-04T10:03:18;1999.90;;;999.90;;
4053;SDS011;2042;47.956;9.222;2023-03-04T10:10:51;1999.90;;;999.90;;
4053;SDS011;2042;47.956;9.222;2023-03-04T10:13:24;1999.90;;;999.90;;
4053;SDS011;2042;47.956;9.222;2023-03-04T10:15:57;1999.90;;;999.90;;
4053;SDS011;2042;47.956;9.222;2023-03-04T10:18:34;1999.90;;;999.90;;
4053;SDS011;2042;47.956;9.222;2023-03-04T10:23:34;1999.90;;;999.90;;
4053;SDS011;2042;47.956;9.222;2023-03-04T10:26:09;1999.90;;;999.90;;
4053;SDS011;2042;47.956;9.222;2023-03-04T10:28:38;1999.90;;;999.90;;
4053;SDS011;2042;47.956;9.222;2023-03-04T10:33:33;1999.90;;;999.90;;
4053;SDS011;2042;47.956;9.222;2023-03-04T10:38:43;1999.90;;;999.90;;
4053;SDS011;2042;47.956;9.222;2023-03-04T10:41:11;1999.90;;;999.90;;
4053;SDS011;2042;47.956;9.222;2023-03-04T10:43:40;1999.90;;;999.90;;
4053;SDS011;2042;47.956;9.222;2023-03-04T10:46:10;1999.90;;;999.90;;
4053;SDS011;2042;47.956;9.222;2023-03-04T10:48:39;1999.90;;;999.90;;
4053;SDS011;2042;47.956;9.222;2023-03-04T10:51:18;1999.90;;;999.90;;
4053;SDS011;2042;47.956;9.222;2023-03-04T10:53:46;1999.90;;;999.90;;
4053;SDS011;2042;47.956;9.222;2023-03-04T10:59:29;1999.90;;;999.90;;
4053;SDS011;2042;47.956;9.222;2023-03-04T11:04:55;1999.90;;;999.90;;
4053;SDS011;2042;47.956;9.222;2023-03-04T11:07:38;1999.90;;;999.90;;
4053;SDS011;2042;47.956;9.222;2023-03-04T11:10:16;1999.90;;;999.90;;
4053;SDS011;2042;47.956;9.222;2023-03-04T11:12:48;1999.90;;;999.90;;
4053;SDS011;2042;47.956;9.222;2023-03-04T11:15:20;1999.90;;;999.90;;
4053;SDS011;2042;47.956;9.222;2023-03-04T11:18:05;1999.90;;;999.90;;
4053;SDS011;2042;47.956;9.222;2023-03-04T11:20:41;1999.90;;;999.90;;
4053;SDS011;2042;47.956;9.222;2023-03-04T11:23:15;1999.90;;;999.90;;
4053;SDS011;2042;47.956;9.222;2023-03-04T11:25:49;1999.90;;;999.90;;
4053;SDS011;2042;47.956;9.222;2023-03-04T11:28:23;1999.90;;;999.90;;
4053;SDS011;2042;47.956;9.222;2023-03-04T11:30:56;1999.90;;;999.90;;
4053;SDS011;2042;47.956;9.222;2023-03-04T11:33:37;1999.90;;;999.90;;
4053;SDS011;2042;47.956;9.222;2023-03-04T11:36:37;1999.90;;;999.90;;
4053;SDS011;2042;47.956;9.222;2023-03-04T11:39:43;1999.90;;;999.90;;
4053;SDS011;2042;47.956;9.222;2023-03-04T11:44:47;1999.90;;;999.90;;
4053;SDS011;2042;47.956;9.222;2023-03-04T12:01:08;1999.90;;;999.90;;
4053;SDS011;2042;47.956;9.222;2023-03-04T12:09:39;1999.90;;;999.90;;
4053;SDS011;2042;47.956;9.222;2023-03-04T12:20:58;1999.90;;;999.90;;
4053;SDS011;2042;47.956;9.222;2023-03-04T12:23:38;1999.90;;;999.90;;
4053;SDS011;2042;47.956;9.222;2023-03-04T12:29:03;1999.90;;;999.90;;
4053;SDS011;2042;47.956;9.222;2023-03-04T12:31:53;1999.90;;;999.90;;
4053;SDS011;2042;47.956;9.222;2023-03-04T12:45:31;1999.90;;;999.90;;
4053;SDS011;2042;47.956;9.222;2023-03-04T12:53:26;1999.90;;;999.90;;
4053;SDS011;2042;47.956;9.222;2023-03-04T12:56:02;1999.90;;;999.90;;
4053;SDS011;2042;47.956;9.222;2023-03-04T12:58:32;1999.90;;;999.90;;
4053;SDS011;2042;47.956;9.222;2023-03-04T13:01:05;1999.90;;;999.90;;
4053;SDS011;2042;47.956;9.222;2023-03-04T13:16:27;1999.90;;;999.90;;
4053;SDS011;2042;47.956;9.222;2023-03-04T13:19:40;1999.90;;;999.90;;
4053;SDS011;2042;47.956;9.222;2023-03-04T13:28:11;1999.90;;;999.90;;
4053;SDS011;2042;47.956;9.222;2023-03-04T13:56:44;1999.90;;;999.90;;
4053;SDS011;2042;47.956;9.222;2023-03-04T14:04:36;1999.90;;;999.90;;
4053;SDS011;2042;47.956;9.222;2023-03-04T14:07:19;1999.90;;;999.90;;
4053;SDS011;2042;47.956;9.222;2023-03-04T14:12:45;1999.90;;;999.90;;
4053;SDS011;2042;47.956;9.222;2023-03-04T14:15:25;1999.90;;;999.90;;
4053;SDS011;2042;47.956;9.222;2023-03-04T14:17:58;1999.90;;;999.90;;
4053;SDS011;2042;47.956;9.222;2023-03-04T14:22:58;1999.90;;;999.90;;
4053;SDS011;2042;47.956;9.222;2023-03-04T14:25:44;1999.90;;;999.90;;
4053;SDS011;2042;47.956;9.222;2023-03-04T14:28:11;1999.90;;;999.90;;
4053;SDS011;2042;47.956;9.222;2023-03-04T14:30:41;1999.90;;;999.90;;
4053;SDS011;2042;47.956;9.222;2023-03-04T14:33:16;1999.90;;;999.90;;
4053;SDS011;2042;47.956;9.222;2023-03-04T14:35:49;1999.90;;;999.90;;
4053;SDS011;2042;47.956;9.222;2023-03-04T14:38:28;1999.90;;;999.90;;
4053;SDS011;2042;47.956;9.222;2023-03-04T14:41:07;1999.90;;;999.90;;
4053;SDS011;2042;47.956;9.222;2023-03-04T14:43:41;1999.90;;;999.90;;
4053;SDS011;2042;47.956;9.222;2023-03-04T14:46:14;1999.90;;;999.90;;
4053;SDS011;2042;47.956;9.222;2023-03-04T14:48:44;1999.90;;;999.90;;
4053;SDS011;2042;47.956;9.222;2023-03-04T14:51:35;1999.90;;;999.90;;
4053;SDS011;2042;47.956;9.222;2023-03-04T14:54:24;1999.90;;;999.90;;
4053;SDS011;2042;47.956;9.222;2023-03-04T14:57:01;1999.90;;;999.90;;
4053;SDS011;2042;47.956;9.222;2023-03-04T14:59:50;1999.90;;;999.90;;
4053;SDS011;2042;47.956;9.222;2023-03-04T15:02:25;1999.90;;;999.90;;
4053;SDS011;2042;47.956;9.222;2023-03-04T15:07:34;1999.90;;;999.90;;
4053;SDS011;2042;47.956;9.222;2023-03-04T15:10:03;1999.90;;;999.90;;
4053;SDS011;2042;47.956;9.222;2023-03-04T15:12:33;1999.90;;;999.90;;
4053;SDS011;2042;47.956;9.222;2023-03-04T15:15:01;1999.90;;;999.90;;
4053;SDS011;2042;47.956;9.222;2023-03-04T15:17:55;1999.90;;;999.90;;
4053;SDS011;2042;47.956;9.222;2023-03-04T15:20:29;1999.90;;;999.90;;
4053;SDS011;2042;47.956;9.222;2023-03-04T15:22:57;1999.90;;;999.90;;
4053;SDS011;2042;47.956;9.222;2023-03-04T15:25:27;1999.90;;;999.90;;
4053;SDS011;2042;47.956;9.222;2023-03-04T15:27:54;1999.90;;;999.90;;
4053;SDS011;2042;47.956;9.222;2023-03-04T15:30:22;1999.90;;;999.90;;
4053;SDS011;2042;47.956;9.222;2023-03-04T15:32:52;1999.90;;;999.90;;
4053;SDS011;2042;47.956;9.222;2023-03-04T15:35:20;1999.90;;;999.90;;
4053;SDS011;2042;47.956;9.222;2023-03-04T15:37:47;1999.90;;;999.90;;
4053;SDS011;2042;47.956;9.222;2023-03-04T15:42:53;1999.90;;;999.90;;
4053;SDS011;2042;47.956;9.222;2023-03-04T15:45:25;1999.90;;;999.90;;
4053;SDS011;2042;47.956;9.222;2023-03-04T15:47:55;1999.90;;;999.90;;
4053;SDS011;2042;47.956;9.222;2023-03-04T15:50:21;1999.90;;;999.90;;
4053;SDS011;2042;47.956;9.222;2023-03-04T15:52:55;1999.90;;;999.90;;
4053;SDS011;2042;47.956;9.222;2023-03-04T15:55:24;1999.90;;;999.90;;
4053;SDS011;2042;47.956;9.222;2023-03-04T15:57:51;1999.90;;;999.90;;
4053;SDS011;2042;47.956;9.222;2023-03-04T16:00:19;1999.90;;;999.90;;
4053;SDS011;2042;47.956;9.222;2023-03-04T16:02:45;1999.90;;;999.90;;
4053;SDS011;2042;47.956;9.222;2023-03-04T16:05:11;1999.90;;;999.90;;
4053;SDS011;2042;47.956;9.222;2023-03-04T16:07:39;1999.90;;;999.90;;
4053;SDS011;2042;47.956;9.222;2023-03-04T16:10:07;1999.90;;;999.90;;
4053;SDS011;2042;47.956;9.222;2023-03-04T16:12:41;1999.90;;;999.90;;
4053;SDS011;2042;47.956;9.222;2023-03-04T16:15:12;1999.90;;;999.90;;
4053;SDS011;2042;47.956;9.222;2023-03-04T16:17:42;1999.90;;;999.90;;
4053;SDS011;2042;47.956;9.222;2023-03-04T16:20:12;1999.90;;;999.90;;
4053;SDS011;2042;47.956;9.222;2023-03-04T16:22:41;1999.90;;;999.90;;
4053;SDS011;2042;47.956;9.222;2023-03-04T16:25:08;1999.90;;;999.90;;
4053;SDS011;2042;47.956;9.222;2023-03-04T16:27:37;1999.90;;;999.90;;
4053;SDS011;2042;47.956;9.222;2023-03-04T16:30:04;1999.90;;;999.90;;
4053;SDS011;2042;47.956;9.222;2023-03-04T16:32:32;1999.90;;;999.90;;
4053;SDS011;2042;47.956;9.222;2023-03-04T16:34:58;1999.90;;;999.90;;
4053;SDS011;2042;47.956;9.222;2023-03-04T16:37:26;1999.90;;;999.90;;
4053;SDS011;2042;47.956;9.222;2023-03-04T16:39:52;1999.90;;;999.90;;
4053;SDS011;2042;47.956;9.222;2023-03-04T16:42:18;1999.90;;;999.90;;
4053;SDS011;2042;47.956;9.222;2023-03-04T16:44:47;1999.90;;;999.90;;
4053;SDS011;2042;47.956;9.222;2023-03-04T16:47:13;1999.90;;;999.90;;